Lafontaine, Kansas
Current Conditions -  °F | °C
As of 8:52 AM on Sunday 21 Dec 2014 (Local Time) from KCNU Reporting Station
Overcast Overcast  
Wind Chill: 36°   Ceiling: 2400
Heat Index: 41°   Visibility: 7mi
Dew Point: 39°   Wind: 8mph
Humidity: 93%   Direction: 180°S
Pressure: 30.05"   Gusts: NA
Location:  37.5252°N, 95.8316°W
Report Text: KCNU 211452Z AUTO 18007KT 7SM FEW008 OVC024 05/04 A3005 RMK AO2 SLP179 T00500039 58002
Loading
Personal Weather Stations






























Interactive Weather Map New forecast layout! Learn more

10-Day Weather Forecast

Advertisements
Track Severe Weather on mobile